sensor_id;sensor_type;location;lat;lon;timestamp;P1;P2;P0
45700;PMS5003;36277;32.852;-116.998;2023-04-01T00:00:58;13.00;13.00;8.20
45700;PMS5003;36277;32.852;-116.998;2023-04-01T00:03:25;10.80;10.80;7.00
45700;PMS5003;36277;32.852;-116.998;2023-04-01T00:05:56;7.60;7.20;4.40
45700;PMS5003;36277;32.852;-116.998;2023-04-01T00:08:24;11.00;11.00;7.00
45700;PMS5003;36277;32.852;-116.998;2023-04-01T00:10:51;11.40;11.40;8.00
45700;PMS5003;36277;32.852;-116.998;2023-04-01T00:13:19;12.40;12.40;7.60
45700;PMS5003;36277;32.852;-116.998;2023-04-01T00:15:46;8.40;8.00;3.20
45700;PMS5003;36277;32.852;-116.998;2023-04-01T00:18:13;10.80;10.80;6.60
45700;PMS5003;36277;32.852;-116.998;2023-04-01T00:20:42;14.20;13.40;6.80
45700;PMS5003;36277;32.852;-116.998;2023-04-01T00:23:10;11.80;11.80;7.80
45700;PMS5003;36277;32.852;-116.998;2023-04-01T00:25:36;11.80;11.80;8.00
45700;PMS5003;36277;32.852;-116.998;2023-04-01T00:28:03;13.40;13.40;7.00
45700;PMS5003;36277;32.852;-116.998;2023-04-01T00:30:29;10.00;10.00;6.20
45700;PMS5003;36277;32.852;-116.998;2023-04-01T00:32:55;11.80;11.40;6.00
45700;PMS5003;36277;32.852;-116.998;2023-04-01T00:35:22;7.80;7.60;5.00
45700;PMS5003;36277;32.852;-116.998;2023-04-01T00:37:48;7.40;7.40;4.40
45700;PMS5003;36277;32.852;-116.998;2023-04-01T00:40:24;7.40;7.40;5.00
45700;PMS5003;36277;32.852;-116.998;2023-04-01T00:42:53;10.80;10.00;6.80
45700;PMS5003;36277;32.852;-116.998;2023-04-01T00:45:24;8.80;8.80;5.80
45700;PMS5003;36277;32.852;-116.998;2023-04-01T00:48:05;9.60;9.60;6.40
45700;PMS5003;36277;32.852;-116.998;2023-04-01T00:50:38;10.80;10.80;6.80
45700;PMS5003;36277;32.852;-116.998;2023-04-01T00:53:08;8.60;7.60;5.00
45700;PMS5003;36277;32.852;-116.998;2023-04-01T00:55:35;9.80;9.80;7.00
45700;PMS5003;36277;32.852;-116.998;2023-04-01T00:58:05;7.00;7.00;5.20
45700;PMS5003;36277;32.852;-116.998;2023-04-01T01:00:36;9.20;9.20;5.80
45700;PMS5003;36277;32.852;-116.998;2023-04-01T01:03:04;8.60;8.60;5.80
45700;PMS5003;36277;32.852;-116.998;2023-04-01T01:05:35;7.60;7.20;4.00
45700;PMS5003;36277;32.852;-116.998;2023-04-01T01:08:24;6.60;6.60;5.00
45700;PMS5003;36277;32.852;-116.998;2023-04-01T01:11:14;6.80;6.80;5.20
45700;PMS5003;36277;32.852;-116.998;2023-04-01T01:13:51;4.00;4.00;3.20
45700;PMS5003;36277;32.852;-116.998;2023-04-01T01:16:30;6.80;6.80;5.20
45700;PMS5003;36277;32.852;-116.998;2023-04-01T01:22:07;4.60;4.40;2.00
45700;PMS5003;36277;32.852;-116.998;2023-04-01T01:27:38;6.80;6.80;4.00
45700;PMS5003;36277;32.852;-116.998;2023-04-01T01:30:17;3.00;3.00;3.00
45700;PMS5003;36277;32.852;-116.998;2023-04-01T01:36:00;6.80;6.80;4.60
45700;PMS5003;36277;32.852;-116.998;2023-04-01T01:38:29;5.80;5.20;4.00
45700;PMS5003;36277;32.852;-116.998;2023-04-01T01:40:58;4.00;4.00;3.00
45700;PMS5003;36277;32.852;-116.998;2023-04-01T01:43:29;7.20;7.20;6.00
45700;PMS5003;36277;32.852;-116.998;2023-04-01T01:45:59;5.00;5.00;3.20
45700;PMS5003;36277;32.852;-116.998;2023-04-01T01:48:30;3.40;3.40;1.40
45700;PMS5003;36277;32.852;-116.998;2023-04-01T01:50:58;6.00;6.00;4.00
45700;PMS5003;36277;32.852;-116.998;2023-04-01T01:53:25;4.00;4.00;3.00
45700;PMS5003;36277;32.852;-116.998;2023-04-01T01:55:51;4.00;4.00;3.00
45700;PMS5003;36277;32.852;-116.998;2023-04-01T02:01:03;5.80;5.80;3.20
45700;PMS5003;36277;32.852;-116.998;2023-04-01T02:03:34;3.00;3.00;2.00
45700;PMS5003;36277;32.852;-116.998;2023-04-01T02:06:04;4.00;4.00;3.00
45700;PMS5003;36277;32.852;-116.998;2023-04-01T02:08:35;4.00;4.00;2.40
45700;PMS5003;36277;32.852;-116.998;2023-04-01T02:11:06;3.00;3.00;2.40
45700;PMS5003;36277;32.852;-116.998;2023-04-01T02:16:10;3.00;3.00;2.40
45700;PMS5003;36277;32.852;-116.998;2023-04-01T02:18:46;4.00;4.00;3.00
45700;PMS5003;36277;32.852;-116.998;2023-04-01T02:21:17;3.60;3.60;3.00
45700;PMS5003;36277;32.852;-116.998;2023-04-01T02:23:46;4.00;4.00;3.00
45700;PMS5003;36277;32.852;-116.998;2023-04-01T02:26:13;2.00;2.00;1.40
45700;PMS5003;36277;32.852;-116.998;2023-04-01T02:28:40;5.00;5.00;4.80
45700;PMS5003;36277;32.852;-116.998;2023-04-01T02:31:09;4.00;4.00;3.00
45700;PMS5003;36277;32.852;-116.998;2023-04-01T02:33:36;1.00;1.00;1.00
45700;PMS5003;36277;32.852;-116.998;2023-04-01T02:36:05;4.00;4.00;3.00
45700;PMS5003;36277;32.852;-116.998;2023-04-01T02:38:35;3.00;3.00;2.00
45700;PMS5003;36277;32.852;-116.998;2023-04-01T02:41:02;4.20;4.20;3.00
45700;PMS5003;36277;32.852;-116.998;2023-04-01T02:43:30;2.20;2.20;2.00
45700;PMS5003;36277;32.852;-116.998;2023-04-01T02:45:56;2.40;2.40;2.00
45700;PMS5003;36277;32.852;-116.998;2023-04-01T02:48:23;3.40;3.40;3.00
45700;PMS5003;36277;32.852;-116.998;2023-04-01T02:50:49;1.00;1.00;1.00
45700;PMS5003;36277;32.852;-116.998;2023-04-01T02:53:16;4.00;4.00;2.40
45700;PMS5003;36277;32.852;-116.998;2023-04-01T02:55:42;3.80;3.80;3.00
45700;PMS5003;36277;32.852;-116.998;2023-04-01T02:58:10;1.20;1.20;1.00
45700;PMS5003;36277;32.852;-116.998;2023-04-01T03:00:37;2.80;2.80;2.00
45700;PMS5003;36277;32.852;-116.998;2023-04-01T03:03:04;3.20;3.20;3.00
45700;PMS5003;36277;32.852;-116.998;2023-04-01T03:05:30;2.00;2.00;2.00
45700;PMS5003;36277;32.852;-116.998;2023-04-01T03:07:56;3.00;3.00;2.80
45700;PMS5003;36277;32.852;-116.998;2023-04-01T03:10:23;3.40;3.00;2.40
45700;PMS5003;36277;32.852;-116.998;2023-04-01T03:12:49;3.00;3.00;2.60
45700;PMS5003;36277;32.852;-116.998;2023-04-01T03:15:15;2.20;2.20;2.00
45700;PMS5003;36277;32.852;-116.998;2023-04-01T03:17:42;2.60;2.60;2.00
45700;PMS5003;36277;32.852;-116.998;2023-04-01T03:20:09;2.80;2.80;2.00
45700;PMS5003;36277;32.852;-116.998;2023-04-01T03:22:36;3.00;3.00;2.60
45700;PMS5003;36277;32.852;-116.998;2023-04-01T03:25:04;3.20;3.20;3.00
45700;PMS5003;36277;32.852;-116.998;2023-04-01T03:27:33;3.80;3.80;3.00
45700;PMS5003;36277;32.852;-116.998;2023-04-01T03:30:01;4.00;4.00;4.00
45700;PMS5003;36277;32.852;-116.998;2023-04-01T03:32:28;3.20;3.20;3.00
45700;PMS5003;36277;32.852;-116.998;2023-04-01T03:34:54;5.40;5.40;5.00
45700;PMS5003;36277;32.852;-116.998;2023-04-01T03:37:21;5.40;5.40;4.80
45700;PMS5003;36277;32.852;-116.998;2023-04-01T03:39:48;6.00;6.00;5.80
45700;PMS5003;36277;32.852;-116.998;2023-04-01T03:42:14;8.80;8.80;7.80
45700;PMS5003;36277;32.852;-116.998;2023-04-01T03:44:41;8.00;8.00;8.00
45700;PMS5003;36277;32.852;-116.998;2023-04-01T03:47:07;9.00;9.00;8.00
45700;PMS5003;36277;32.852;-116.998;2023-04-01T03:49:35;11.60;11.60;10.00
45700;PMS5003;36277;32.852;-116.998;2023-04-01T03:52:01;7.20;7.20;7.00
45700;PMS5003;36277;32.852;-116.998;2023-04-01T03:54:27;12.00;12.00;11.20
45700;PMS5003;36277;32.852;-116.998;2023-04-01T03:56:54;10.60;10.60;9.60
45700;PMS5003;36277;32.852;-116.998;2023-04-01T03:59:20;12.20;12.20;11.40
45700;PMS5003;36277;32.852;-116.998;2023-04-01T04:01:47;12.60;12.60;12.00
45700;PMS5003;36277;32.852;-116.998;2023-04-01T04:04:13;10.00;10.00;9.40
45700;PMS5003;36277;32.852;-116.998;2023-04-01T04:06:39;10.20;10.20;9.20
45700;PMS5003;36277;32.852;-116.998;2023-04-01T04:09:06;9.40;9.40;9.00
45700;PMS5003;36277;32.852;-116.998;2023-04-01T04:11:32;8.60;8.60;8.60
45700;PMS5003;36277;32.852;-116.998;2023-04-01T04:13:59;9.40;9.40;9.00
45700;PMS5003;36277;32.852;-116.998;2023-04-01T04:16:25;10.00;10.00;10.00
45700;PMS5003;36277;32.852;-116.998;2023-04-01T04:18:51;8.60;8.60;8.00
45700;PMS5003;36277;32.852;-116.998;2023-04-01T04:21:17;9.80;9.80;9.40
45700;PMS5003;36277;32.852;-116.998;2023-04-01T04:23:44;10.00;10.00;9.20
45700;PMS5003;36277;32.852;-116.998;2023-04-01T04:26:12;8.00;8.00;7.00
45700;PMS5003;36277;32.852;-116.998;2023-04-01T04:28:40;11.00;11.00;10.20
45700;PMS5003;36277;32.852;-116.998;2023-04-01T04:31:06;11.00;11.00;10.00
45700;PMS5003;36277;32.852;-116.998;2023-04-01T04:33:33;10.00;10.00;9.60
45700;PMS5003;36277;32.852;-116.998;2023-04-01T04:36:00;9.80;9.80;8.80
45700;PMS5003;36277;32.852;-116.998;2023-04-01T04:38:28;8.00;8.00;7.20
45700;PMS5003;36277;32.852;-116.998;2023-04-01T04:40:54;8.20;8.20;8.00
45700;PMS5003;36277;32.852;-116.998;2023-04-01T04:43:21;10.60;10.60;9.40
45700;PMS5003;36277;32.852;-116.998;2023-04-01T04:45:47;8.80;8.80;7.80
45700;PMS5003;36277;32.852;-116.998;2023-04-01T04:48:14;8.20;8.20;7.80
45700;PMS5003;36277;32.852;-116.998;2023-04-01T04:50:44;8.00;8.00;8.00
45700;PMS5003;36277;32.852;-116.998;2023-04-01T04:53:15;10.40;10.40;9.80
45700;PMS5003;36277;32.852;-116.998;2023-04-01T04:55:44;9.00;9.00;8.00
45700;PMS5003;36277;32.852;-116.998;2023-04-01T04:58:14;10.00;10.00;9.00
45700;PMS5003;36277;32.852;-116.998;2023-04-01T05:00:41;8.00;8.00;8.00
45700;PMS5003;36277;32.852;-116.998;2023-04-01T05:03:08;6.80;6.80;6.60
45700;PMS5003;36277;32.852;-116.998;2023-04-01T05:05:34;7.00;7.00;6.60
45700;PMS5003;36277;32.852;-116.998;2023-04-01T05:08:01;7.00;7.00;7.00
45700;PMS5003;36277;32.852;-116.998;2023-04-01T05:10:27;6.40;6.40;5.60
45700;PMS5003;36277;32.852;-116.998;2023-04-01T05:12:54;6.80;6.80;6.80
45700;PMS5003;36277;32.852;-116.998;2023-04-01T05:15:20;5.00;5.00;5.00
45700;PMS5003;36277;32.852;-116.998;2023-04-01T05:17:47;6.00;6.00;6.00
45700;PMS5003;36277;32.852;-116.998;2023-04-01T05:20:13;4.20;4.20;4.00
45700;PMS5003;36277;32.852;-116.998;2023-04-01T05:22:40;6.00;6.00;5.80
45700;PMS5003;36277;32.852;-116.998;2023-04-01T05:25:07;5.60;5.60;5.00
45700;PMS5003;36277;32.852;-116.998;2023-04-01T05:27:34;7.00;7.00;6.20
45700;PMS5003;36277;32.852;-116.998;2023-04-01T05:30:00;7.00;7.00;7.00
45700;PMS5003;36277;32.852;-116.998;2023-04-01T05:32:26;5.80;5.80;5.60
45700;PMS5003;36277;32.852;-116.998;2023-04-01T05:34:53;6.00;6.00;5.40
45700;PMS5003;36277;32.852;-116.998;2023-04-01T05:37:19;6.00;6.00;5.00
45700;PMS5003;36277;32.852;-116.998;2023-04-01T05:39:46;4.60;4.60;4.00
45700;PMS5003;36277;32.852;-116.998;2023-04-01T05:42:12;5.00;5.00;5.00
45700;PMS5003;36277;32.852;-116.998;2023-04-01T05:44:39;6.80;6.80;6.00
45700;PMS5003;36277;32.852;-116.998;2023-04-01T05:47:05;5.20;5.20;5.00
45700;PMS5003;36277;32.852;-116.998;2023-04-01T05:49:32;5.00;5.00;4.20
45700;PMS5003;36277;32.852;-116.998;2023-04-01T05:51:59;4.20;4.20;4.00
45700;PMS5003;36277;32.852;-116.998;2023-04-01T05:54:25;4.20;4.20;4.00
45700;PMS5003;36277;32.852;-116.998;2023-04-01T05:56:52;5.60;5.60;5.40
45700;PMS5003;36277;32.852;-116.998;2023-04-01T05:59:18;4.60;4.60;4.20
45700;PMS5003;36277;32.852;-116.998;2023-04-01T06:01:45;5.00;5.00;5.00
45700;PMS5003;36277;32.852;-116.998;2023-04-01T06:04:13;3.60;3.60;3.00
45700;PMS5003;36277;32.852;-116.998;2023-04-01T06:06:41;5.00;5.00;5.00
45700;PMS5003;36277;32.852;-116.998;2023-04-01T06:09:18;4.80;4.80;4.80
45700;PMS5003;36277;32.852;-116.998;2023-04-01T06:14:44;4.40;4.40;4.40
45700;PMS5003;36277;32.852;-116.998;2023-04-01T06:23:22;5.60;5.60;5.00
45700;PMS5003;36277;32.852;-116.998;2023-04-01T06:31:10;4.80;4.80;4.00
45700;PMS5003;36277;32.852;-116.998;2023-04-01T06:37:07;2.00;2.00;2.00
45700;PMS5003;36277;32.852;-116.998;2023-04-01T06:42:52;4.00;4.00;3.60
45700;PMS5003;36277;32.852;-116.998;2023-04-01T06:54:40;3.40;3.40;3.00
45700;PMS5003;36277;32.852;-116.998;2023-04-01T06:59:55;4.40;4.40;4.00
45700;PMS5003;36277;32.852;-116.998;2023-04-01T07:05:11;4.00;4.00;4.00
45700;PMS5003;36277;32.852;-116.998;2023-04-01T07:07:47;4.00;4.00;4.00
45700;PMS5003;36277;32.852;-116.998;2023-04-01T07:11:03;4.00;4.00;3.00
45700;PMS5003;36277;32.852;-116.998;2023-04-01T07:16:21;3.00;3.00;3.00
45700;PMS5003;36277;32.852;-116.998;2023-04-01T07:19:03;3.00;3.00;3.00
45700;PMS5003;36277;32.852;-116.998;2023-04-01T07:21:48;3.00;3.00;3.00
45700;PMS5003;36277;32.852;-116.998;2023-04-01T07:26:59;3.00;3.00;2.00
45700;PMS5003;36277;32.852;-116.998;2023-04-01T07:29:25;3.00;3.00;3.00
45700;PMS5003;36277;32.852;-116.998;2023-04-01T07:34:46;3.60;3.60;3.20
45700;PMS5003;36277;32.852;-116.998;2023-04-01T07:45:23;2.60;2.60;2.00
45700;PMS5003;36277;32.852;-116.998;2023-04-01T07:48:08;0.00;0.00;0.00
45700;PMS5003;36277;32.852;-116.998;2023-04-01T07:50:55;2.00;2.00;2.00
45700;PMS5003;36277;32.852;-116.998;2023-04-01T07:53:38;2.00;2.00;2.00
45700;PMS5003;36277;32.852;-116.998;2023-04-01T07:56:19;2.80;2.80;2.40
45700;PMS5003;36277;32.852;-116.998;2023-04-01T08:01:53;2.80;2.80;2.60
45700;PMS5003;36277;32.852;-116.998;2023-04-01T08:07:06;2.00;2.00;2.00
45700;PMS5003;36277;32.852;-116.998;2023-04-01T08:23:21;1.00;1.00;1.00
45700;PMS5003;36277;32.852;-116.998;2023-04-01T08:26:02;1.80;1.80;1.80
45700;PMS5003;36277;32.852;-116.998;2023-04-01T08:28:41;1.00;1.00;1.00
45700;PMS5003;36277;32.852;-116.998;2023-04-01T08:31:20;1.60;1.60;1.60
45700;PMS5003;36277;32.852;-116.998;2023-04-01T08:33:58;1.60;1.60;1.60
45700;PMS5003;36277;32.852;-116.998;2023-04-01T08:53:00;1.00;1.00;1.00
45700;PMS5003;36277;32.852;-116.998;2023-04-01T08:58:47;1.00;1.00;1.00
45700;PMS5003;36277;32.852;-116.998;2023-04-01T09:10:18;1.00;1.00;1.00
45700;PMS5003;36277;32.852;-116.998;2023-04-01T09:12:59;1.00;1.00;1.00
45700;PMS5003;36277;32.852;-116.998;2023-04-01T09:18:54;1.00;1.00;1.00
45700;PMS5003;36277;32.852;-116.998;2023-04-01T09:38:21;1.00;1.00;1.00
45700;PMS5003;36277;32.852;-116.998;2023-04-01T09:46:16;1.60;1.60;1.60
45700;PMS5003;36277;32.852;-116.998;2023-04-01T09:49:00;2.00;2.00;2.00
45700;PMS5003;36277;32.852;-116.998;2023-04-01T09:52:02;1.00;1.00;0.60
45700;PMS5003;36277;32.852;-116.998;2023-04-01T09:55:01;1.00;1.00;1.00
45700;PMS5003;36277;32.852;-116.998;2023-04-01T10:09:08;1.00;1.00;1.00
45700;PMS5003;36277;32.852;-116.998;2023-04-01T10:26:19;0.80;0.80;0.80
45700;PMS5003;36277;32.852;-116.998;2023-04-01T10:43:18;0.00;0.00;0.00
45700;PMS5003;36277;32.852;-116.998;2023-04-01T11:07:13;0.80;0.80;0.80
45700;PMS5003;36277;32.852;-116.998;2023-04-01T11:10:09;0.40;0.40;0.40
45700;PMS5003;36277;32.852;-116.998;2023-04-01T11:44:16;1.00;1.00;1.00
45700;PMS5003;36277;32.852;-116.998;2023-04-01T11:49:40;0.00;0.00;0.00
45700;PMS5003;36277;32.852;-116.998;2023-04-01T11:55:21;0.00;0.00;0.00
45700;PMS5003;36277;32.852;-116.998;2023-04-01T12:00:44;0.00;0.00;0.00
45700;PMS5003;36277;32.852;-116.998;2023-04-01T12:09:03;0.00;0.00;0.00
45700;PMS5003;36277;32.852;-116.998;2023-04-01T12:17:03;0.00;0.00;0.00
45700;PMS5003;36277;32.852;-116.998;2023-04-01T12:20:14;0.00;0.00;0.00
45700;PMS5003;36277;32.852;-116.998;2023-04-01T12:23:06;0.00;0.00;0.00
45700;PMS5003;36277;32.852;-116.998;2023-04-01T12:31:52;0.00;0.00;0.00
45700;PMS5003;36277;32.852;-116.998;2023-04-01T12:43:06;0.00;0.00;0.00
45700;PMS5003;36277;32.852;-116.998;2023-04-01T13:07:47;0.60;0.60;0.40
45700;PMS5003;36277;32.852;-116.998;2023-04-01T13:10:52;0.00;0.00;0.00
45700;PMS5003;36277;32.852;-116.998;2023-04-01T13:13:24;0.00;0.00;0.00
45700;PMS5003;36277;32.852;-116.998;2023-04-01T13:16:03;0.00;0.00;0.00
45700;PMS5003;36277;32.852;-116.998;2023-04-01T13:19:52;0.00;0.00;0.00
45700;PMS5003;36277;32.852;-116.998;2023-04-01T13:30:03;0.60;0.60;0.00
45700;PMS5003;36277;32.852;-116.998;2023-04-01T13:32:47;0.00;0.00;0.00
45700;PMS5003;36277;32.852;-116.998;2023-04-01T13:43:39;1.00;1.00;1.00
45700;PMS5003;36277;32.852;-116.998;2023-04-01T13:46:24;1.00;1.00;1.00
45700;PMS5003;36277;32.852;-116.998;2023-04-01T13:54:46;0.20;0.20;0.20
45700;PMS5003;36277;32.852;-116.998;2023-04-01T14:08:29;0.00;0.00;0.00
45700;PMS5003;36277;32.852;-116.998;2023-04-01T14:11:07;0.00;0.00;0.00
45700;PMS5003;36277;32.852;-116.998;2023-04-01T14:19:33;0.60;0.60;0.00
45700;PMS5003;36277;32.852;-116.998;2023-04-01T14:36:02;5.00;5.00;5.00
45700;PMS5003;36277;32.852;-116.998;2023-04-01T14:55:34;10.00;9.00;6.00
45700;PMS5003;36277;32.852;-116.998;2023-04-01T14:58:15;7.40;7.40;6.00
45700;PMS5003;36277;32.852;-116.998;2023-04-01T15:00:47;4.40;4.40;3.80
45700;PMS5003;36277;32.852;-116.998;2023-04-01T15:03:29;6.20;6.20;5.00
45700;PMS5003;36277;32.852;-116.998;2023-04-01T15:19:37;3.00;3.00;3.00
45700;PMS5003;36277;32.852;-116.998;2023-04-01T15:28:15;6.80;6.80;5.40
45700;PMS5003;36277;32.852;-116.998;2023-04-01T15:31:10;7.20;7.20;6.40
45700;PMS5003;36277;32.852;-116.998;2023-04-01T15:34:02;21.25;21.25;14.75
45700;PMS5003;36277;32.852;-116.998;2023-04-01T15:39:37;22.00;22.00;17.75
45700;PMS5003;36277;32.852;-116.998;2023-04-01T15:42:24;18.75;18.75;14.50
45700;PMS5003;36277;32.852;-116.998;2023-04-01T15:45:26;16.40;15.80;12.00
45700;PMS5003;36277;32.852;-116.998;2023-04-01T15:48:20;12.60;12.60;9.20
45700;PMS5003;36277;32.852;-116.998;2023-04-01T15:51:11;10.60;10.60;7.20
45700;PMS5003;36277;32.852;-116.998;2023-04-01T15:53:47;10.00;10.00;8.00
45700;PMS5003;36277;32.852;-116.998;2023-04-01T15:56:36;5.60;5.60;4.20
45700;PMS5003;36277;32.852;-116.998;2023-04-01T15:59:27;8.20;8.20;6.80
45700;PMS5003;36277;32.852;-116.998;2023-04-01T16:02:12;6.80;6.80;5.40
45700;PMS5003;36277;32.852;-116.998;2023-04-01T16:05:00;7.20;7.20;6.40
45700;PMS5003;36277;32.852;-116.998;2023-04-01T16:08:05;7.00;7.00;6.00
45700;PMS5003;36277;32.852;-116.998;2023-04-01T16:10:52;7.20;7.20;6.20
45700;PMS5003;36277;32.852;-116.998;2023-04-01T16:19:01;5.00;5.00;4.80
45700;PMS5003;36277;32.852;-116.998;2023-04-01T16:29:53;4.60;4.60;3.80
45700;PMS5003;36277;32.852;-116.998;2023-04-01T16:32:48;1.00;1.00;0.20
45700;PMS5003;36277;32.852;-116.998;2023-04-01T16:38:23;3.00;3.00;3.00
45700;PMS5003;36277;32.852;-116.998;2023-04-01T16:41:07;2.00;2.00;2.00
45700;PMS5003;36277;32.852;-116.998;2023-04-01T16:43:58;1.00;1.00;1.00
45700;PMS5003;36277;32.852;-116.998;2023-04-01T16:46:52;4.00;4.00;2.80
45700;PMS5003;36277;32.852;-116.998;2023-04-01T16:49:36;3.00;3.00;3.00
45700;PMS5003;36277;32.852;-116.998;2023-04-01T16:55:20;39.75;35.50;26.75
45700;PMS5003;36277;32.852;-116.998;2023-04-01T16:57:56;65.00;54.00;40.20
45700;PMS5003;36277;32.852;-116.998;2023-04-01T17:11:31;75.00;66.60;52.00
45700;PMS5003;36277;32.852;-116.998;2023-04-01T17:14:23;71.20;59.40;49.40
45700;PMS5003;36277;32.852;-116.998;2023-04-01T17:17:18;71.00;59.80;47.00
45700;PMS5003;36277;32.852;-116.998;2023-04-01T17:23:24;65.40;54.20;42.40
45700;PMS5003;36277;32.852;-116.998;2023-04-01T17:31:29;63.00;52.60;38.20
45700;PMS5003;36277;32.852;-116.998;2023-04-01T17:34:26;55.00;46.40;34.00
45700;PMS5003;36277;32.852;-116.998;2023-04-01T17:42:22;50.50;42.75;32.00
45700;PMS5003;36277;32.852;-116.998;2023-04-01T17:51:08;49.00;42.25;30.50
45700;PMS5003;36277;32.852;-116.998;2023-04-01T17:53:59;49.00;42.00;31.50
45700;PMS5003;36277;32.852;-116.998;2023-04-01T18:08:07;45.25;39.25;28.00
45700;PMS5003;36277;32.852;-116.998;2023-04-01T18:10:56;40.00;36.25;25.75
45700;PMS5003;36277;32.852;-116.998;2023-04-01T18:13:49;38.00;34.75;27.00
45700;PMS5003;36277;32.852;-116.998;2023-04-01T18:18:57;37.75;34.75;27.00
45700;PMS5003;36277;32.852;-116.998;2023-04-01T18:21:53;40.00;36.00;27.50
45700;PMS5003;36277;32.852;-116.998;2023-04-01T18:24:33;34.00;33.00;25.75
45700;PMS5003;36277;32.852;-116.998;2023-04-01T18:30:00;30.25;30.25;23.00
45700;PMS5003;36277;32.852;-116.998;2023-04-01T18:43:42;32.00;31.25;23.00
45700;PMS5003;36277;32.852;-116.998;2023-04-01T18:46:31;29.50;29.25;23.00
45700;PMS5003;36277;32.852;-116.998;2023-04-01T18:51:53;24.25;24.25;20.25
45700;PMS5003;36277;32.852;-116.998;2023-04-01T18:54:32;25.75;25.75;18.75
45700;PMS5003;36277;32.852;-116.998;2023-04-01T19:00:22;20.25;20.00;15.25
45700;PMS5003;36277;32.852;-116.998;2023-04-01T19:02:32;19.25;19.25;18.00
45700;PMS5003;36277;32.852;-116.998;2023-04-01T19:05:10;21.25;21.25;16.50
45700;PMS5003;36277;32.852;-116.998;2023-04-01T19:07:44;22.50;22.25;18.00
45700;PMS5003;36277;32.852;-116.998;2023-04-01T19:10:14;15.25;15.25;12.50
45700;PMS5003;36277;32.852;-116.998;2023-04-01T19:13:11;19.25;19.25;16.75
45700;PMS5003;36277;32.852;-116.998;2023-04-01T19:15:57;18.50;18.50;15.00
45700;PMS5003;36277;32.852;-116.998;2023-04-01T19:26:57;18.40;18.40;14.20
45700;PMS5003;36277;32.852;-116.998;2023-04-01T19:35:20;15.80;15.80;14.00
45700;PMS5003;36277;32.852;-116.998;2023-04-01T19:38:01;10.00;10.00;9.20
45700;PMS5003;36277;32.852;-116.998;2023-04-01T19:43:49;15.00;15.00;13.00
45700;PMS5003;36277;32.852;-116.998;2023-04-01T19:52:03;10.00;10.00;8.20
45700;PMS5003;36277;32.852;-116.998;2023-04-01T19:55:01;10.40;10.40;9.00
45700;PMS5003;36277;32.852;-116.998;2023-04-01T20:05:32;11.20;11.20;9.40
45700;PMS5003;36277;32.852;-116.998;2023-04-01T20:16:06;6.00;6.00;5.00
45700;PMS5003;36277;32.852;-116.998;2023-04-01T20:21:27;7.60;7.60;6.80
45700;PMS5003;36277;32.852;-116.998;2023-04-01T20:23:56;6.00;6.00;5.00
45700;PMS5003;36277;32.852;-116.998;2023-04-01T20:26:32;8.00;8.00;6.60
45700;PMS5003;36277;32.852;-116.998;2023-04-01T20:48:21;6.00;6.00;5.20
45700;PMS5003;36277;32.852;-116.998;2023-04-01T20:51:03;6.00;6.00;5.00
45700;PMS5003;36277;32.852;-116.998;2023-04-01T20:53:42;7.00;7.00;5.40
45700;PMS5003;36277;32.852;-116.998;2023-04-01T20:56:29;5.60;5.60;5.20
45700;PMS5003;36277;32.852;-116.998;2023-04-01T21:07:32;7.00;7.00;5.00
45700;PMS5003;36277;32.852;-116.998;2023-04-01T21:13:03;6.80;6.80;6.00
45700;PMS5003;36277;32.852;-116.998;2023-04-01T21:31:33;4.00;4.00;3.00
45700;PMS5003;36277;32.852;-116.998;2023-04-01T21:48:45;5.60;5.60;4.40
45700;PMS5003;36277;32.852;-116.998;2023-04-01T21:54:21;5.00;5.00;4.00
45700;PMS5003;36277;32.852;-116.998;2023-04-01T22:00:20;5.40;5.40;4.40
45700;PMS5003;36277;32.852;-116.998;2023-04-01T22:05:42;4.00;4.00;3.20
45700;PMS5003;36277;32.852;-116.998;2023-04-01T22:23:13;4.60;4.60;2.80
45700;PMS5003;36277;32.852;-116.998;2023-04-01T22:26:18;3.60;3.60;3.00
45700;PMS5003;36277;32.852;-116.998;2023-04-01T22:31:28;2.80;2.80;2.00
45700;PMS5003;36277;32.852;-116.998;2023-04-01T22:34:17;2.00;2.00;2.00
45700;PMS5003;36277;32.852;-116.998;2023-04-01T22:45:11;2.20;2.20;2.00
45700;PMS5003;36277;32.852;-116.998;2023-04-01T22:50:40;2.20;2.20;2.00
45700;PMS5003;36277;32.852;-116.998;2023-04-01T22:53:41;1.00;1.00;1.00
45700;PMS5003;36277;32.852;-116.998;2023-04-01T22:56:35;2.00;2.00;1.60
45700;PMS5003;36277;32.852;-116.998;2023-04-01T23:01:55;2.00;2.00;1.60
45700;PMS5003;36277;32.852;-116.998;2023-04-01T23:04:27;2.00;2.00;2.00
45700;PMS5003;36277;32.852;-116.998;2023-04-01T23:06:59;1.00;1.00;1.00
45700;PMS5003;36277;32.852;-116.998;2023-04-01T23:09:33;2.00;2.00;1.60
45700;PMS5003;36277;32.852;-116.998;2023-04-01T23:12:07;1.60;1.60;1.60
45700;PMS5003;36277;32.852;-116.998;2023-04-01T23:20:15;1.00;1.00;1.00
45700;PMS5003;36277;32.852;-116.998;2023-04-01T23:30:51;1.60;1.60;1.60
45700;PMS5003;36277;32.852;-116.998;2023-04-01T23:38:39;1.80;1.80;1.60
45700;PMS5003;36277;32.852;-116.998;2023-04-01T23:41:07;1.00;1.00;1.00
45700;PMS5003;36277;32.852;-116.998;2023-04-01T23:43:43;2.00;2.00;2.00
45700;PMS5003;36277;32.852;-116.998;2023-04-01T23:46:14;0.00;0.00;0.00
45700;PMS5003;36277;32.852;-116.998;2023-04-01T23:48:42;1.80;1.80;1.20
45700;PMS5003;36277;32.852;-116.998;2023-04-01T23:51:17;1.00;1.00;1.00
45700;PMS5003;36277;32.852;-116.998;2023-04-01T23:53:47;1.00;1.00;1.00
45700;PMS5003;36277;32.852;-116.998;2023-04-01T23:56:39;1.40;1.40;1.20
